Time;durP1;ratioP1;P1;durP2;ratioP2;P2;SDS_P1;SDS_P2;PMS_P1;PMS_P2;Temp;Humidity;BMP_temperature;BMP_pressure;BME280_temperature;BME280_humidity;BME280_pressure;Samples;Min_cycle;Max_cycle;Signal;HPM_P1;HPM_P2
2022/03/20 00:00:03;;;;;;;2.17;1.95;;;;;;;21.05;33.32;103859.50;5014427;28;20128;-68
2022/03/20 00:02:37;;;;;;;3.53;2.22;;;;;;;21.09;33.30;103860.94;4982915;28;20065;-68
2022/03/20 00:05:04;;;;;;;2.72;1.98;;;;;;;21.01;33.34;103855.38;5005654;28;20034;-68
2022/03/20 00:07:33;;;;;;;4.00;2.50;;;;;;;21.02;33.23;103857.91;4982383;28;20041;-68
2022/03/20 00:10:01;;;;;;;3.20;2.00;;;;;;;21.04;33.16;103857.81;5010764;28;20041;-67
2022/03/20 00:12:27;;;;;;;2.90;2.13;;;;;;;21.01;33.25;103850.94;4986141;28;20038;-70
2022/03/20 00:14:53;;;;;;;3.90;2.47;;;;;;;21.02;33.37;103849.97;5009335;28;20052;-68
2022/03/20 00:17:20;;;;;;;2.00;1.83;;;;;;;20.98;33.20;103851.13;4984412;28;20395;-68
2022/03/20 00:19:46;;;;;;;2.55;1.95;;;;;;;20.98;33.37;103856.44;4996840;28;20052;-68
2022/03/20 00:22:12;;;;;;;2.05;1.85;;;;;;;20.97;33.36;103841.50;5010328;28;20281;-68
2022/03/20 00:24:42;;;;;;;2.50;1.90;;;;;;;20.95;33.25;103845.22;4985955;28;20048;-68
2022/03/20 00:27:09;;;;;;;2.92;2.20;;;;;;;20.91;33.34;103834.03;5013451;28;20652;-70
2022/03/20 00:29:34;;;;;;;2.80;2.10;;;;;;;20.93;33.33;103831.25;4985608;28;20033;-68
2022/03/20 00:32:00;;;;;;;2.13;1.80;;;;;;;20.89;33.27;103832.44;5009897;28;20041;-68
2022/03/20 00:34:26;;;;;;;4.63;2.58;;;;;;;20.89;33.41;103824.50;4977341;28;20208;-67
2022/03/20 00:36:51;;;;;;;3.22;2.10;;;;;;;20.86;33.23;103811.50;5008974;28;20037;-68
2022/03/20 00:39:17;;;;;;;2.58;1.90;;;;;;;20.86;33.42;103812.34;4983947;28;20262;-68
2022/03/20 00:41:42;;;;;;;2.92;2.05;;;;;;;20.84;33.23;103808.97;5010452;28;20041;-68
2022/03/20 00:44:08;;;;;;;3.08;2.22;;;;;;;20.84;33.52;103810.78;4991901;28;20029;-67
2022/03/20 00:46:33;;;;;;;3.00;1.95;;;;;;;20.80;33.41;103805.66;5012889;28;20213;-67
2022/03/20 00:48:59;;;;;;;3.47;2.20;;;;;;;20.81;33.36;103814.47;4989574;28;20049;-68
2022/03/20 00:51:24;;;;;;;2.28;1.95;;;;;;;20.78;33.40;103812.88;5000040;28;20041;-68
2022/03/20 00:53:50;;;;;;;2.70;2.20;;;;;;;20.78;33.32;103812.03;5013798;28;20044;-68
2022/03/20 00:56:16;;;;;;;3.17;2.10;;;;;;;20.77;33.40;103803.25;4986071;28;20500;-70
2022/03/20 00:58:41;;;;;;;2.88;2.17;;;;;;;20.72;33.42;103799.28;5009596;28;20411;-68
2022/03/20 01:01:09;;;;;;;2.10;1.90;;;;;;;20.75;33.40;103802.53;4983315;28;20034;-69
2022/03/20 01:03:35;;;;;;;3.13;2.10;;;;;;;20.73;33.34;103801.81;5010024;28;20766;-70
2022/03/20 01:06:01;;;;;;;4.53;2.10;;;;;;;20.73;33.36;103796.50;4975671;28;20041;-70
2022/03/20 01:08:27;;;;;;;2.75;2.10;;;;;;;20.65;33.34;103777.72;5009243;28;20530;-70
2022/03/20 01:10:53;;;;;;;3.58;2.22;;;;;;;20.58;33.72;103771.16;4996848;28;20186;-69
2022/03/20 01:13:18;;;;;;;4.78;2.40;;;;;;;20.67;33.58;103786.38;4986132;28;20507;-68
2022/03/20 01:15:45;;;;;;;3.83;2.20;;;;;;;20.61;33.55;103770.09;5010149;28;20048;-68
2022/03/20 01:18:10;;;;;;;3.50;2.40;;;;;;;20.65;33.41;103774.22;4989427;28;20146;-68
2022/03/20 01:20:36;;;;;;;4.03;2.10;;;;;;;20.64;33.29;103773.34;5014613;28;20045;-68
2022/03/20 01:23:02;;;;;;;2.47;1.90;;;;;;;20.63;33.46;103763.72;4977787;28;20030;-68
2022/03/20 01:25:30;;;;;;;3.35;2.28;;;;;;;20.62;33.38;103769.13;5010717;28;20538;-67
2022/03/20 01:27:56;;;;;;;2.60;2.10;;;;;;;20.60;33.32;103761.31;4987659;28;20116;-68
2022/03/20 01:30:21;;;;;;;3.00;2.15;;;;;;;20.52;33.47;103748.66;5007103;28;20277;-68
2022/03/20 01:32:47;;;;;;;3.25;2.13;;;;;;;20.58;33.42;103762.38;4986876;28;20048;-67
2022/03/20 01:35:13;;;;;;;3.20;2.15;;;;;;;20.52;33.52;103753.09;5009606;28;20048;-68
2022/03/20 01:37:41;;;;;;;3.13;2.35;;;;;;;20.51;33.45;103749.59;4985061;28;20030;-68
2022/03/20 01:40:07;;;;;;;3.30;2.17;;;;;;;20.54;33.45;103755.63;5003870;28;20532;-68
2022/03/20 01:42:33;;;;;;;3.17;2.10;;;;;;;20.54;33.45;103747.69;5008161;28;20056;-72
2022/03/20 01:44:59;;;;;;;3.83;2.42;;;;;;;20.51;33.47;103741.66;4984778;28;20045;-68
2022/03/20 01:47:24;;;;;;;2.47;2.20;;;;;;;20.43;33.66;103722.00;5010518;28;20156;-68
2022/03/20 01:49:50;;;;;;;3.15;2.15;;;;;;;20.50;33.56;103731.19;4988641;28;20432;-70
2022/03/20 01:52:24;;;;;;;2.58;2.05;;;;;;;20.48;33.53;103728.66;5008697;28;20033;-70
2022/03/20 01:54:50;;;;;;;3.35;2.40;;;;;;;20.46;33.42;103733.19;4976043;28;20883;-69
2022/03/20 01:57:17;;;;;;;3.05;2.20;;;;;;;20.45;33.53;103717.44;5010959;28;20605;-69
2022/03/20 01:59:44;;;;;;;3.15;2.15;;;;;;;20.45;33.51;103715.63;5011663;28;20105;-67
2022/03/20 02:02:11;;;;;;;3.30;2.17;;;;;;;20.42;33.57;103715.88;4990432;28;20037;-68
2022/03/20 02:04:37;;;;;;;2.92;2.22;;;;;;;20.41;33.58;103708.88;5006956;28;20037;-67
2022/03/20 02:07:04;;;;;;;3.28;2.05;;;;;;;20.40;33.45;103711.63;4984352;28;20128;-67
2022/03/20 02:09:31;;;;;;;2.78;2.10;;;;;;;20.41;33.59;103705.38;5013321;28;20545;-67
2022/03/20 02:11:59;;;;;;;3.40;2.42;;;;;;;20.39;33.60;103699.34;4973319;28;20401;-67
2022/03/20 02:14:25;;;;;;;2.90;2.10;;;;;;;20.37;33.59;103688.88;5012713;28;20483;-69
2022/03/20 02:16:51;;;;;;;5.00;2.40;;;;;;;20.36;33.66;103689.81;4983490;28;20089;-68
2022/03/20 02:19:17;;;;;;;3.03;2.10;;;;;;;20.37;33.53;103680.09;5005791;28;20042;-68
2022/03/20 02:21:44;;;;;;;3.13;2.22;;;;;;;20.37;33.61;103683.56;4982170;28;20060;-69
2022/03/20 02:24:41;;;;;;;2.85;2.40;;;;;;;20.33;33.57;103662.75;5020765;28;20263;-70
2022/03/20 02:27:17;;;;;;;3.38;2.38;;;;;;;20.32;33.57;103663.72;4978058;28;20046;-67
2022/03/20 02:29:48;;;;;;;4.05;2.47;;;;;;;20.30;33.63;103658.53;5008248;28;20806;-67
2022/03/20 02:32:16;;;;;;;4.20;2.75;;;;;;;20.33;33.49;103660.09;4983613;28;20283;-69
2022/03/20 02:34:41;;;;;;;3.80;2.40;;;;;;;20.31;33.57;103667.31;5011188;28;20077;-69
2022/03/20 02:37:08;;;;;;;4.47;2.70;;;;;;;20.28;33.58;103657.78;4984135;28;20635;-70
2022/03/20 02:39:34;;;;;;;4.13;2.50;;;;;;;20.21;33.27;103646.81;5011287;28;20527;-69
2022/03/20 02:42:03;;;;;;;3.63;2.30;;;;;;;20.27;33.56;103640.22;4988719;28;23742;-69
2022/03/20 02:44:54;;;;;;;3.28;2.58;;;;;;;20.27;33.54;103636.72;4999104;28;20558;-70
2022/03/20 02:47:23;;;;;;;3.33;2.45;;;;;;;20.25;33.63;103620.97;5010894;28;20455;-70
2022/03/20 02:49:54;;;;;;;3.60;2.38;;;;;;;20.08;33.49;103592.28;4983883;28;20460;-70
2022/03/20 02:52:24;;;;;;;2.65;2.40;;;;;;;20.20;33.63;103615.19;5007729;28;20052;-70
2022/03/20 02:54:50;;;;;;;3.22;2.33;;;;;;;20.17;33.53;103621.56;4985404;28;20099;-69
2022/03/20 02:57:16;;;;;;;3.00;2.67;;;;;;;20.15;33.66;103623.47;5011219;28;20054;-68
2022/03/20 02:59:41;;;;;;;3.55;2.33;;;;;;;20.18;33.62;103615.31;4971731;28;20059;-67
2022/03/20 03:02:09;;;;;;;5.70;2.58;;;;;;;20.15;33.59;103618.19;5010137;28;20367;-69
2022/03/20 03:04:37;;;;;;;3.28;2.47;;;;;;;20.15;33.71;103610.25;4982774;28;20107;-68
2022/03/20 03:07:03;;;;;;;5.10;2.63;;;;;;;20.15;33.64;103602.31;5010761;28;20046;-67
2022/03/20 03:12:14;;;;;;;3.55;2.80;;;;;;;20.15;33.55;103604.13;5009572;28;20957;-68
2022/03/20 03:17:28;;;;;;;2.88;2.50;;;;;;;19.92;33.65;103568.78;5008855;28;20059;-68
2022/03/20 03:19:55;;;;;;;5.18;3.15;;;;;;;20.07;33.35;103588.81;4995136;28;20030;-68
2022/03/20 03:22:20;;;;;;;3.50;2.50;;;;;;;20.11;33.58;103592.94;5003268;28;20064;-68
2022/03/20 03:24:46;;;;;;;4.50;3.00;;;;;;;20.08;33.65;103587.00;5003642;28;20046;-68
2022/03/20 03:27:12;;;;;;;5.53;2.80;;;;;;;20.07;33.53;103585.31;4990651;28;20049;-67
2022/03/20 03:29:38;;;;;;;3.75;2.75;;;;;;;20.07;33.63;103582.66;5009156;28;20053;-68
2022/03/20 03:32:05;;;;;;;3.05;2.45;;;;;;;20.05;33.59;103588.06;4970266;28;20037;-68
2022/03/20 03:37:20;;;;;;;4.85;2.95;;;;;;;20.04;33.61;103572.31;4985495;28;20526;-68
2022/03/20 03:39:46;;;;;;;4.65;2.72;;;;;;;20.00;33.62;103568.22;5009397;28;20037;-68
2022/03/20 03:42:12;;;;;;;4.00;2.63;;;;;;;19.98;33.64;103565.69;4990400;28;20033;-68
2022/03/20 03:44:39;;;;;;;6.53;3.22;;;;;;;19.95;33.68;103555.34;5009019;28;20681;-68
2022/03/20 03:47:05;;;;;;;4.00;3.00;;;;;;;19.99;33.63;103559.44;4982219;28;20204;-68
2022/03/20 03:49:31;;;;;;;5.57;3.13;;;;;;;19.98;33.68;103562.22;5013160;28;20149;-68
2022/03/20 03:51:57;;;;;;;4.65;3.00;;;;;;;19.93;33.62;103557.28;4996718;28;20446;-68
2022/03/20 03:54:23;;;;;;;4.88;2.95;;;;;;;19.95;33.68;103562.44;5008670;28;20041;-68
2022/03/20 03:56:49;;;;;;;4.22;3.10;;;;;;;19.98;33.58;103548.97;5004609;28;20036;-68
2022/03/20 03:59:14;;;;;;;4.38;3.17;;;;;;;19.92;33.65;103537.88;4996105;28;20092;-67
2022/03/20 04:01:40;;;;;;;4.45;3.50;;;;;;;19.92;33.60;103537.03;5015019;28;20721;-68
2022/03/20 04:04:05;;;;;;;4.00;3.05;;;;;;;19.92;33.55;103534.41;4980404;28;20171;-67
2022/03/20 04:06:32;;;;;;;5.05;3.47;;;;;;;19.88;33.70;103535.59;5012937;28;20045;-68
2022/03/20 04:08:58;;;;;;;4.45;3.08;;;;;;;19.90;33.58;103538.97;4988905;28;20046;-68
2022/03/20 04:11:23;;;;;;;5.65;3.35;;;;;;;19.91;33.62;103524.78;5009870;28;20581;-68
2022/03/20 04:13:49;;;;;;;4.32;3.10;;;;;;;19.80;33.37;103514.19;4988148;28;20041;-68
2022/03/20 04:16:15;;;;;;;4.15;3.25;;;;;;;19.86;33.71;103525.13;5011401;28;20526;-67
2022/03/20 04:18:41;;;;;;;3.78;3.08;;;;;;;19.86;33.58;103521.66;4980590;28;20051;-68
2022/03/20 04:21:06;;;;;;;4.32;3.13;;;;;;;19.84;33.63;103520.91;5014425;28;20206;-69
2022/03/20 04:23:49;;;;;;;3.80;3.20;;;;;;;19.78;33.66;103519.59;5013801;28;20487;-68
2022/03/20 04:26:20;;;;;;;5.90;3.60;;;;;;;19.81;33.56;103515.88;4999374;28;20421;-68
2022/03/20 04:28:49;;;;;;;4.70;3.22;;;;;;;19.79;33.71;103525.72;5009029;28;20038;-68
2022/03/20 04:31:17;;;;;;;4.68;3.30;;;;;;;19.78;33.65;103521.38;4998060;28;20050;-68
2022/03/20 04:33:47;;;;;;;5.25;3.47;;;;;;;19.77;33.60;103512.63;5010524;28;20125;-69
2022/03/20 04:36:13;;;;;;;4.13;3.22;;;;;;;19.79;33.66;103504.56;4970429;28;20041;-68
2022/03/20 04:38:39;;;;;;;5.28;3.60;;;;;;;19.75;33.33;103503.97;5010487;28;20070;-69
2022/03/20 04:41:05;;;;;;;5.80;3.50;;;;;;;19.76;33.67;103508.28;4991320;28;20050;-69
2022/03/20 04:43:31;;;;;;;4.47;3.28;;;;;;;19.76;33.70;103502.16;5017057;28;20075;-67
2022/03/20 04:45:57;;;;;;;4.18;3.35;;;;;;;19.74;33.50;103491.66;4986264;28;20123;-69
2022/03/20 04:59:27;;;;;;;5.85;3.80;;;;;;;19.53;33.66;103472.09;4996135;28;20531;-70
2022/03/20 05:01:52;;;;;;;5.43;3.90;;;;;;;19.58;33.74;103489.34;4987914;28;20095;-69
2022/03/20 05:04:18;;;;;;;5.13;3.40;;;;;;;19.53;33.82;103480.88;5013222;28;20080;-69
2022/03/20 05:06:43;;;;;;;5.25;3.92;;;;;;;19.45;33.77;103462.09;4978254;28;20049;-68
2022/03/20 05:14:38;;;;;;;5.68;3.60;;;;;;;19.41;34.04;103471.22;5009714;28;20049;-69
2022/03/20 05:17:06;;;;;;;5.38;3.85;;;;;;;19.37;34.00;103458.31;4975677;28;20479;-69
2022/03/20 05:19:33;;;;;;;5.47;3.83;;;;;;;19.35;33.95;103458.44;5009604;28;20604;-69
2022/03/20 05:21:59;;;;;;;5.32;3.95;;;;;;;19.32;34.28;103458.69;4975465;28;21068;-68
2022/03/20 05:24:24;;;;;;;4.80;3.65;;;;;;;19.37;34.11;103453.88;4991825;28;20042;-68
2022/03/20 05:26:50;;;;;;;5.00;3.70;;;;;;;19.37;34.28;103453.03;5015339;28;20535;-68
2022/03/20 05:29:15;;;;;;;5.00;3.97;;;;;;;19.25;34.27;103429.22;4975585;28;20045;-68
2022/03/20 05:31:41;;;;;;;7.80;4.40;;;;;;;19.38;34.13;103454.72;5014743;28;20042;-68
2022/03/20 05:34:07;;;;;;;5.47;3.95;;;;;;;19.43;34.10;103447.31;4976936;28;20038;-69
2022/03/20 05:36:32;;;;;;;4.57;3.78;;;;;;;19.43;34.26;103447.31;5019226;28;20041;-68
2022/03/20 05:38:59;;;;;;;5.50;3.60;;;;;;;19.41;34.02;103447.44;4962477;28;20026;-69
2022/03/20 05:41:46;;;;;;;4.80;3.83;;;;;;;19.53;34.17;103446.50;5010784;28;20101;-69
2022/03/20 05:44:16;;;;;;;5.22;3.50;;;;;;;19.86;33.87;103437.88;4980374;28;20633;-69
2022/03/20 05:46:51;;;;;;;6.07;4.28;;;;;;;20.41;32.99;103430.13;5013623;28;20681;-69
2022/03/20 05:49:18;;;;;;;4.95;3.88;;;;;;;21.11;32.13;103432.44;4976442;28;20702;-68
2022/03/20 05:51:43;;;;;;;5.07;3.90;;;;;;;21.50;31.76;103430.13;5010453;28;20025;-69
2022/03/20 05:54:10;;;;;;;6.28;3.90;;;;;;;21.90;30.94;103430.25;4976533;28;21855;-69
2022/03/20 05:59:19;;;;;;;5.63;4.25;;;;;;;22.20;30.83;103429.47;5006646;28;20049;-69
2022/03/20 06:01:45;;;;;;;5.78;4.40;;;;;;;22.08;30.74;103422.56;4989335;28;20037;-69
2022/03/20 06:04:11;;;;;;;5.07;3.78;;;;;;;21.90;31.32;103422.28;5004384;28;20048;-69
2022/03/20 06:06:37;;;;;;;4.85;3.70;;;;;;;21.70;31.54;103422.19;4977647;28;20041;-69
2022/03/20 06:09:06;;;;;;;5.72;3.80;;;;;;;21.54;31.78;103424.44;5009302;28;20037;-69
2022/03/20 06:11:34;;;;;;;5.95;4.15;;;;;;;21.39;32.32;103420.44;4962007;28;20045;-69
2022/03/20 06:14:03;;;;;;;5.68;4.00;;;;;;;21.22;32.30;103416.50;5012313;28;20124;-69
2022/03/20 06:16:29;;;;;;;5.30;4.05;;;;;;;21.06;32.52;103401.00;4975781;28;20084;-69
2022/03/20 06:18:56;;;;;;;4.55;3.67;;;;;;;21.34;32.33;103425.25;5012602;28;20694;-69
2022/03/20 06:21:22;;;;;;;5.55;4.00;;;;;;;21.68;31.91;103410.84;4974726;28;20041;-67
2022/03/20 06:23:49;;;;;;;4.97;3.92;;;;;;;21.98;31.75;103418.03;5012562;28;20045;-69
2022/03/20 06:26:16;;;;;;;5.50;3.80;;;;;;;22.23;30.88;103411.47;4973144;28;20037;-69
2022/03/20 06:28:43;;;;;;;4.90;3.83;;;;;;;22.39;30.96;103410.13;4997034;28;20566;-68
2022/03/20 06:31:12;;;;;;;6.20;4.00;;;;;;;22.40;30.72;103394.06;5010334;28;20037;-69
2022/03/20 06:33:39;;;;;;;4.50;3.65;;;;;;;22.49;30.94;103403.03;4975180;28;20175;-69
2022/03/20 06:36:06;;;;;;;5.47;3.70;;;;;;;22.22;31.14;103396.50;5010096;28;20041;-69
2022/03/20 06:38:33;;;;;;;5.68;4.07;;;;;;;22.13;31.44;103402.63;4974932;28;20159;-69
2022/03/20 06:41:00;;;;;;;6.47;4.05;;;;;;;21.97;31.69;103408.38;5010709;28;20514;-68
2022/03/20 06:43:25;;;;;;;5.70;3.97;;;;;;;21.78;31.99;103405.63;4960994;28;20133;-69
2022/03/20 06:45:53;;;;;;;5.55;4.30;;;;;;;21.71;31.83;103407.94;5009251;28;20132;-69
2022/03/20 06:48:19;;;;;;;5.90;3.90;;;;;;;21.56;32.20;103411.06;4972970;28;20048;-69
2022/03/20 06:50:44;;;;;;;5.40;4.30;;;;;;;21.46;32.54;103405.69;5009660;28;20041;-69
2022/03/20 06:53:11;;;;;;;5.22;4.07;;;;;;;21.39;32.57;103408.03;4972879;28;20037;-68
2022/03/20 06:55:37;;;;;;;5.38;4.50;;;;;;;21.45;32.27;103409.31;5007483;28;20068;-68
2022/03/20 06:58:03;;;;;;;6.28;4.25;;;;;;;21.78;32.00;103407.44;4974877;28;20030;-69
2022/03/20 07:00:29;;;;;;;5.10;3.95;;;;;;;22.00;31.83;103394.00;4995703;28;20030;-69
2022/03/20 07:03:00;;;;;;;6.72;4.50;;;;;;;21.90;31.69;103395.75;5023022;28;20034;-69
2022/03/20 07:05:27;;;;;;;6.35;4.35;;;;;;;21.79;31.83;103393.22;4978176;28;20051;-68
2022/03/20 07:07:53;;;;;;;6.18;4.72;;;;;;;21.68;31.94;103380.84;5012943;28;20037;-69
2022/03/20 07:10:24;;;;;;;6.43;4.50;;;;;;;21.61;32.38;103377.06;4973193;28;20509;-69
2022/03/20 07:12:50;;;;;;;6.60;5.00;;;;;;;21.55;32.14;103367.81;5006720;28;20403;-69
2022/03/20 07:15:18;;;;;;;5.63;3.97;;;;;;;21.45;32.18;103366.91;4937928;28;20069;-69
2022/03/20 07:17:47;;;;;;;5.90;3.83;;;;;;;21.42;32.35;103378.59;5015328;28;20049;-68
2022/03/20 07:20:16;;;;;;;7.10;4.35;;;;;;;21.34;32.45;103374.91;4979768;28;21768;-69
2022/03/20 07:22:43;;;;;;;5.95;4.60;;;;;;;21.30;32.63;103369.03;5013010;28;20629;-69
2022/03/20 07:30:38;;;;;;;7.57;4.60;;;;;;;21.35;32.52;103347.41;4963174;28;20091;-68
2022/03/20 07:33:04;;;;;;;6.00;4.43;;;;;;;21.52;32.11;103352.13;5009914;28;20030;-68
2022/03/20 07:35:30;;;;;;;5.93;4.20;;;;;;;21.65;31.88;103350.13;5011278;28;20041;-68
2022/03/20 07:37:56;;;;;;;5.68;4.53;;;;;;;21.70;31.93;103342.63;4969160;28;20042;-68
2022/03/20 07:40:22;;;;;;;6.70;4.85;;;;;;;21.60;32.14;103343.56;5013428;28;20029;-68
2022/03/20 07:42:47;;;;;;;7.43;4.88;;;;;;;21.57;31.94;103336.72;4978066;28;20049;-68
2022/03/20 07:45:13;;;;;;;5.97;4.80;;;;;;;21.46;32.19;103331.47;5009837;28;20495;-68
2022/03/20 07:47:39;;;;;;;8.23;4.85;;;;;;;21.45;32.21;103321.84;4961854;28;20634;-68
2022/03/20 07:50:07;;;;;;;5.88;4.15;;;;;;;21.38;32.06;103329.47;5011704;28;20034;-68
2022/03/20 07:52:35;;;;;;;7.85;5.05;;;;;;;21.39;32.16;103322.38;5009076;28;20088;-68
2022/03/20 07:55:01;;;;;;;7.00;5.15;;;;;;;21.35;32.14;103326.22;4974101;28;20595;-68
2022/03/20 07:57:29;;;;;;;6.63;5.20;;;;;;;21.34;32.17;103325.38;5009067;28;20053;-68
2022/03/20 07:59:56;;;;;;;6.50;5.32;;;;;;;21.32;32.09;103314.06;4978374;28;20045;-67
2022/03/20 08:02:22;;;;;;;6.70;4.78;;;;;;;21.27;32.40;103310.97;5010505;28;20088;-68
2022/03/20 08:04:48;;;;;;;8.23;5.38;;;;;;;21.30;32.38;103299.28;4965505;28;20048;-68
2022/03/20 08:07:13;;;;;;;6.72;5.20;;;;;;;21.32;32.13;103306.13;5013723;28;20490;-68
2022/03/20 08:09:39;;;;;;;7.30;5.30;;;;;;;21.31;32.25;103295.66;4977308;28;20406;-68
2022/03/20 08:12:07;;;;;;;10.63;5.38;;;;;;;21.32;32.21;103290.22;5010418;28;20495;-68
2022/03/20 08:14:36;;;;;;;7.57;5.65;;;;;;;21.29;32.14;103292.28;4980508;28;20045;-68
2022/03/20 08:17:06;;;;;;;6.65;4.90;;;;;;;21.31;32.24;103295.66;5011347;28;20042;-68
2022/03/20 08:19:32;;;;;;;5.75;4.65;;;;;;;21.11;32.32;103255.75;4965128;28;20069;-68
2022/03/20 08:21:59;;;;;;;7.90;5.53;;;;;;;21.25;32.45;103281.13;5010563;28;20463;-68
2022/03/20 08:24:25;;;;;;;6.28;4.90;;;;;;;21.25;32.41;103283.78;5011153;28;20786;-68
2022/03/20 08:26:51;;;;;;;7.20;5.25;;;;;;;21.23;32.22;103261.00;4977083;28;20118;-68
2022/03/20 08:29:16;;;;;;;7.25;5.20;;;;;;;21.29;32.36;103258.69;5012235;28;20064;-69
2022/03/20 08:31:45;;;;;;;7.32;5.35;;;;;;;21.42;31.98;103258.47;4979135;28;20049;-68
2022/03/20 08:34:13;;;;;;;6.93;5.10;;;;;;;21.74;31.79;103244.25;5012986;28;20107;-69
2022/03/20 08:36:39;;;;;;;7.30;5.35;;;;;;;21.92;31.40;103242.63;4964971;28;20483;-68
2022/03/20 08:39:05;;;;;;;6.20;4.68;;;;;;;21.78;31.55;103201.41;5018937;28;20128;-68
2022/03/20 08:41:32;;;;;;;7.13;5.55;;;;;;;21.93;31.65;103234.53;4983068;28;20083;-69
2022/03/20 08:43:57;;;;;;;7.28;5.45;;;;;;;21.89;31.60;103226.97;5017574;28;20066;-68
2022/03/20 08:46:23;;;;;;;7.88;5.15;;;;;;;21.78;31.68;103225.28;4981376;28;20045;-68
2022/03/20 08:48:49;;;;;;;7.85;5.38;;;;;;;21.71;31.73;103221.47;5020651;28;20034;-68
2022/03/20 08:51:14;;;;;;;7.25;5.28;;;;;;;21.63;31.87;103218.66;4983070;28;20061;-67
2022/03/20 08:53:40;;;;;;;7.45;5.78;;;;;;;21.57;31.70;103220.03;5002286;28;20033;-69
2022/03/20 08:56:06;;;;;;;7.90;5.88;;;;;;;21.53;31.79;103223.06;5012963;28;20046;-68
2022/03/20 08:58:32;;;;;;;8.52;5.75;;;;;;;21.47;32.03;103215.66;4979044;28;20416;-68
2022/03/20 09:00:58;;;;;;;6.45;5.53;;;;;;;21.26;32.14;103198.00;5013148;28;20136;-67
2022/03/20 09:03:24;;;;;;;7.03;5.10;;;;;;;21.38;31.92;103215.50;4977288;28;20088;-70
2022/03/20 09:05:50;;;;;;;7.93;5.95;;;;;;;21.36;32.32;103214.81;5017788;28;20041;-69
2022/03/20 09:08:16;;;;;;;8.05;6.15;;;;;;;21.24;32.24;103175.22;4964849;28;20037;-67
2022/03/20 09:10:41;;;;;;;7.35;6.22;;;;;;;21.35;32.30;103189.22;5011281;28;20045;-70
2022/03/20 09:13:07;;;;;;;7.90;5.80;;;;;;;21.36;32.23;103182.13;4977328;28;20037;-70
2022/03/20 09:15:32;;;;;;;7.30;6.05;;;;;;;21.39;32.43;103190.69;5003414;28;20044;-70
2022/03/20 09:20:44;;;;;;;8.57;6.03;;;;;;;21.81;31.89;103190.53;5014402;28;20044;-70
2022/03/20 09:23:11;;;;;;;7.65;5.15;;;;;;;22.13;31.18;103185.03;4984576;28;21104;-69
2022/03/20 09:25:37;;;;;;;8.27;6.05;;;;;;;22.22;31.17;103173.56;5003842;28;20495;-70
2022/03/20 09:28:06;;;;;;;8.98;5.90;;;;;;;22.18;31.43;103184.59;5021033;28;20640;-70
2022/03/20 09:30:33;;;;;;;10.43;5.85;;;;;;;22.03;31.14;103179.66;4984371;28;20033;-70
2022/03/20 09:33:04;;;;;;;9.15;6.57;;;;;;;21.97;31.82;103176.75;5018542;28;20040;-70
2022/03/20 09:35:35;;;;;;;8.85;6.28;;;;;;;21.90;31.69;103187.06;4980961;28;20041;-70
2022/03/20 09:38:02;;;;;;;8.55;6.32;;;;;;;21.85;31.67;103176.00;5014040;28;20384;-70
2022/03/20 09:40:28;;;;;;;12.13;6.68;;;;;;;21.75;31.83;103166.38;4976736;28;20640;-70
2022/03/20 09:42:55;;;;;;;17.85;8.82;;;;;;;21.65;31.08;103164.53;5016569;28;20120;-68
2022/03/20 09:45:21;;;;;;;14.80;9.35;;;;;;;21.48;30.49;103162.50;4998158;28;20048;-70
2022/03/20 09:47:47;;;;;;;14.52;9.00;;;;;;;21.32;30.42;103152.41;4976608;28;20033;-67
2022/03/20 09:50:15;;;;;;;17.38;10.05;;;;;;;21.24;30.16;103160.19;5014591;28;20488;-68
2022/03/20 09:52:42;;;;;;;15.55;10.45;;;;;;;21.22;29.70;103163.91;4980189;28;20038;-69
2022/03/20 09:55:09;;;;;;;14.73;10.00;;;;;;;21.10;30.07;103152.56;5009749;28;20706;-68
2022/03/20 09:57:34;;;;;;;14.27;10.38;;;;;;;21.07;30.20;103142.22;4961786;28;20069;-69
2022/03/20 10:00:05;;;;;;;14.77;9.65;;;;;;;21.27;29.79;103140.53;5007949;28;20038;-69
2022/03/20 10:02:31;;;;;;;14.73;10.40;;;;;;;21.73;29.34;103131.19;4977944;28;20056;-68
2022/03/20 10:05:09;;;;;;;15.52;10.35;;;;;;;22.09;28.37;103127.91;5016528;28;20033;-69
2022/03/20 10:07:40;;;;;;;16.42;9.10;;;;;;;22.20;28.64;103122.44;4978330;28;20475;-68
2022/03/20 10:10:23;;;;;;;15.45;10.00;;;;;;;22.13;28.62;103113.38;5015470;28;20091;-68
2022/03/20 10:12:55;;;;;;;12.65;9.05;;;;;;;22.51;28.88;103104.53;4929710;28;20806;-67
2022/03/20 10:15:28;;;;;;;16.02;9.43;;;;;;;22.47;29.16;103094.34;5016490;28;20041;-68
2022/03/20 10:18:17;;;;;;;13.52;8.85;;;;;;;22.42;29.21;103109.84;4994232;28;20060;-66
2022/03/20 10:20:47;;;;;;;13.50;9.87;;;;;;;22.43;29.57;103106.22;5030464;28;20078;-70
2022/03/20 10:23:31;;;;;;;12.70;8.55;;;;;;;22.48;29.82;103091.56;4987237;28;20945;-71
2022/03/20 10:25:57;;;;;;;11.68;8.50;;;;;;;22.41;30.28;103074.50;5016201;28;20061;-78
2022/03/20 10:28:23;;;;;;;12.55;8.65;;;;;;;22.45;30.33;103075.09;4932379;28;20026;-74
2022/03/20 10:31:00;;;;;;;12.02;8.20;;;;;;;22.58;30.30;103070.28;4972779;28;20041;-70
2022/03/20 10:33:25;;;;;;;10.23;7.90;;;;;;;22.60;30.53;103070.97;5016826;28;20044;-73
2022/03/20 10:36:14;;;;;;;10.82;8.45;;;;;;;22.58;30.52;103063.16;4945635;28;20053;-73
2022/03/20 10:38:41;;;;;;;11.98;7.97;;;;;;;22.52;30.74;103052.28;5014493;28;20029;-75
2022/03/20 10:41:19;;;;;;;12.15;8.70;;;;;;;22.48;30.68;103057.03;4943443;28;20073;-75
2022/03/20 10:43:45;;;;;;;11.88;8.10;;;;;;;22.52;31.03;103055.75;5004078;28;20033;-73
2022/03/20 10:46:27;;;;;;;11.77;7.47;;;;;;;22.62;30.81;103061.03;4926928;28;20453;-72
2022/03/20 10:49:00;;;;;;;10.65;7.55;;;;;;;22.76;30.64;103035.84;5010870;28;20084;-76
2022/03/20 10:51:37;;;;;;;11.43;7.63;;;;;;;22.70;30.78;103023.16;4941965;28;20045;-73
2022/03/20 10:54:14;;;;;;;10.80;7.78;;;;;;;22.70;30.62;103031.13;5012843;28;20037;-72
2022/03/20 10:57:00;;;;;;;13.38;8.75;;;;;;;22.79;30.75;103028.41;4941500;28;20480;-72
2022/03/20 10:59:27;;;;;;;11.40;7.97;;;;;;;22.77;30.67;103003.81;5016456;28;20049;-74
2022/03/20 11:01:53;;;;;;;10.73;8.00;;;;;;;22.83;30.65;103011.25;4911903;28;20069;-72
2022/03/20 11:04:20;;;;;;;13.35;9.32;;;;;;;22.84;30.51;102999.63;5011175;28;20661;-70
2022/03/20 11:06:48;;;;;;;9.30;7.75;;;;;;;22.81;30.88;102991.94;4981238;28;20116;-76
2022/03/20 11:09:15;;;;;;;12.02;8.73;;;;;;;22.49;31.07;102981.72;4977920;28;20053;-64
2022/03/20 11:11:51;;;;;;;14.00;8.82;;;;;;;22.33;30.99;102968.22;4976289;28;20030;-64
2022/03/20 11:14:24;;;;;;;11.13;8.50;;;;;;;22.24;31.12;102950.50;4977420;28;20033;-64
2022/03/20 11:17:01;;;;;;;12.65;9.18;;;;;;;22.22;30.68;102965.72;4964140;28;22433;-64
2022/03/20 11:19:29;;;;;;;11.98;8.07;;;;;;;22.30;30.98;102937.50;4977148;28;20049;-68
2022/03/20 11:22:03;;;;;;;11.43;8.15;;;;;;;22.56;30.84;102932.34;4990910;28;20708;-71
2022/03/20 11:24:30;;;;;;;12.88;8.95;;;;;;;22.65;31.02;102920.03;4983787;28;20049;-70
2022/03/20 11:27:01;;;;;;;13.90;8.90;;;;;;;22.55;30.84;102924.53;4986594;28;20430;-66
2022/03/20 11:29:30;;;;;;;13.65;8.77;;;;;;;22.54;30.68;102926.34;4976689;28;20040;-69
2022/03/20 11:31:58;;;;;;;11.48;8.70;;;;;;;22.56;30.85;102929.69;4985773;28;20044;-65
2022/03/20 11:34:26;;;;;;;11.70;9.00;;;;;;;22.64;30.78;102947.56;4947355;28;20029;-69
2022/03/20 11:37:11;;;;;;;12.82;8.73;;;;;;;22.56;30.98;102934.16;5013798;28;20042;-68
2022/03/20 11:40:08;;;;;;;12.57;8.80;;;;;;;22.56;30.89;102945.63;4939840;28;20866;-70
2022/03/20 11:42:34;;;;;;;12.50;8.82;;;;;;;22.40;31.05;102953.38;5009853;28;20037;-62
2022/03/20 11:45:00;;;;;;;15.77;8.77;;;;;;;22.34;31.11;102947.81;4938629;28;20049;-65
2022/03/20 11:47:30;;;;;;;12.60;8.73;;;;;;;22.31;31.39;102939.16;5012214;28;20167;-65
2022/03/20 11:50:19;;;;;;;11.30;8.60;;;;;;;22.25;31.05;102941.53;4923807;28;20045;-65
2022/03/20 11:52:55;;;;;;;13.93;9.30;;;;;;;22.22;31.25;102940.03;4988606;28;20571;-66
2022/03/20 11:55:23;;;;;;;12.10;8.93;;;;;;;22.23;31.09;102944.34;4977895;28;20826;-66
2022/03/20 11:57:50;;;;;;;10.85;7.95;;;;;;;22.19;30.83;102936.84;4974340;28;20033;-65
2022/03/20 12:00:21;;;;;;;12.27;8.88;;;;;;;22.16;30.97;102940.63;4973160;28;20037;-66
2022/03/20 12:02:54;;;;;;;13.40;8.75;;;;;;;22.12;31.28;102941.88;4982852;28;20053;-65